Time;durP1;ratioP1;P1;durP2;ratioP2;P2;SDS_P1;SDS_P2;PMS_P1;PMS_P2;Temp;Humidity;BMP_temperature;BMP_pressure;BME280_temperature;BME280_humidity;BME280_pressure;Samples;Min_cycle;Max_cycle;Signal;HPM_P1;HPM_P2
2022/04/14 00:01:49;;;;;;;13.10;8.10;;;11.20;1.00;;;;;;5041398;28;20469;-88
2022/04/14 00:04:15;;;;;;;12.73;7.80;;;11.20;1.00;;;;;;5040696;28;20507;-88
2022/04/14 00:06:43;;;;;;;14.50;8.77;;;11.10;1.00;;;;;;5032950;28;20040;-86
2022/04/14 00:09:09;;;;;;;12.55;8.18;;;11.10;1.00;;;;;;5031197;28;20105;-88
2022/04/14 00:11:35;;;;;;;13.07;8.65;;;11.00;1.00;;;;;;5042199;28;20052;-87
2022/04/14 00:14:01;;;;;;;15.65;8.40;;;11.00;1.00;;;;;;5041651;28;20044;-89
2022/04/14 00:16:29;;;;;;;11.32;7.82;;;10.90;1.00;;;;;;5042376;28;20024;-88
2022/04/14 00:18:54;;;;;;;12.32;8.30;;;10.90;1.00;;;;;;5039925;28;20387;-88
2022/04/14 00:21:23;;;;;;;14.38;8.50;;;11.00;52.40;;;;;;5042669;28;20044;-87
2022/04/14 00:23:49;;;;;;;12.65;8.02;;;11.00;29.30;;;;;;5041157;28;20043;-87
2022/04/14 00:26:16;;;;;;;11.63;8.35;;;11.00;1.00;;;;;;5041069;28;20037;-87
2022/04/14 00:28:41;;;;;;;14.48;9.05;;;11.00;1.00;;;;;;5042507;28;20063;-88
2022/04/14 00:31:07;;;;;;;12.45;8.55;;;11.00;1.00;;;;;;5041587;28;20635;-89
2022/04/14 00:33:33;;;;;;;13.57;8.48;;;10.90;1.00;;;;;;5040279;28;20105;-88
2022/04/14 00:35:59;;;;;;;13.43;9.10;;;10.90;1.00;;;;;;5058217;28;20404;-89
2022/04/14 00:38:25;;;;;;;12.75;8.30;;;10.90;1.00;;;;;;5041395;28;20040;-87
2022/04/14 00:40:52;;;;;;;14.18;8.52;;;10.80;1.00;;;;;;5042310;28;20201;-88
2022/04/14 00:43:32;;;;;;;14.95;8.75;;;10.80;1.00;;;;;;5040586;28;20082;-89
2022/04/14 00:45:59;;;;;;;14.90;9.13;;;10.80;32.10;;;;;;5039546;28;20491;-87
2022/04/14 00:48:26;;;;;;;14.20;8.60;;;10.80;1.00;;;;;;5040249;28;20059;-88
2022/04/14 00:50:52;;;;;;;12.23;8.70;;;10.70;1.00;;;;;;5041840;28;20068;-88
2022/04/14 00:53:17;;;;;;;16.45;9.27;;;10.70;1.00;;;;;;5040059;28;20116;-87
2022/04/14 00:55:43;;;;;;;13.60;9.63;;;10.70;1.00;;;;;;5057252;28;20107;-87
2022/04/14 00:58:09;;;;;;;13.98;9.57;;;10.60;99.90;;;;;;5041360;28;20079;-87
2022/04/14 01:00:35;;;;;;;19.90;11.05;;;10.60;99.90;;;;;;5041745;28;20028;-88
2022/04/14 01:03:01;;;;;;;18.88;10.75;;;10.60;99.90;;;;;;5044597;28;20040;-88
2022/04/14 01:05:28;;;;;;;17.17;10.63;;;10.60;99.90;;;;;;5042657;28;20044;-87
2022/04/14 01:08:01;;;;;;;20.27;11.43;;;10.60;99.90;;;;;;5044169;28;20032;-87
2022/04/14 01:10:28;;;;;;;16.85;11.70;;;10.50;52.90;;;;;;5043830;28;20072;-88
2022/04/14 01:12:54;;;;;;;20.10;11.63;;;10.50;99.90;;;;;;5044748;28;20641;-88
2022/04/14 01:15:20;;;;;;;20.20;12.60;;;10.50;99.90;;;;;;5046098;28;20037;-88
2022/04/14 01:17:46;;;;;;;19.17;12.45;;;10.50;99.90;;;;;;5060174;28;20043;-87
2022/04/14 01:20:13;;;;;;;19.05;12.48;;;10.50;99.90;;;;;;5042710;28;20041;-87
2022/04/14 01:23:02;;;;;;;18.40;12.00;;;10.50;99.90;;;;;;5045355;28;20061;-88
2022/04/14 01:25:29;;;;;;;20.27;12.40;;;10.40;99.90;;;;;;5045166;28;20036;-88
2022/04/14 01:27:54;;;;;;;20.20;13.07;;;10.40;99.90;;;;;;5043898;28;20041;-87
2022/04/14 01:30:21;;;;;;;19.63;11.98;;;10.40;99.90;;;;;;5046161;28;20044;-88
2022/04/14 01:32:48;;;;;;;20.30;13.07;;;10.30;99.90;;;;;;5059947;28;20041;-87
2022/04/14 01:35:14;;;;;;;19.52;11.88;;;10.30;99.90;;;;;;5043211;28;20112;-87
2022/04/14 01:37:40;;;;;;;23.35;12.23;;;10.30;99.90;;;;;;5044780;28;20190;-87
2022/04/14 01:40:07;;;;;;;17.60;12.50;;;10.20;99.90;;;;;;5043093;28;20036;-87
2022/04/14 01:42:33;;;;;;;19.77;12.65;;;10.30;99.90;;;;;;5044384;28;20163;-87
2022/04/14 01:45:03;;;;;;;19.55;12.30;;;10.20;99.90;;;;;;5044760;28;20407;-87
2022/04/14 01:47:31;;;;;;;20.00;13.30;;;10.10;99.90;;;;;;5060882;28;20464;-87
2022/04/14 01:49:57;;;;;;;19.08;12.52;;;10.10;99.90;;;;;;5043652;28;20360;-88
2022/04/14 01:52:23;;;;;;;21.38;13.38;;;10.10;99.90;;;;;;5046448;28;20087;-87
2022/04/14 01:54:48;;;;;;;21.33;14.30;;;10.00;99.90;;;;;;5043850;28;20032;-87
2022/04/14 01:57:14;;;;;;;23.48;14.50;;;10.00;99.90;;;;;;5043943;28;20222;-87
2022/04/14 01:59:40;;;;;;;19.67;14.10;;;10.00;99.90;;;;;;5043056;28;20041;-88
2022/04/14 02:02:11;;;;;;;24.20;14.73;;;10.00;99.90;;;;;;5044619;28;20119;-87
2022/04/14 02:04:37;;;;;;;23.33;14.73;;;9.90;99.90;;;;;;5041101;28;20894;-87
2022/04/14 02:07:05;;;;;;;23.48;14.90;;;10.00;99.90;;;;;;5041277;28;20042;-87
2022/04/14 02:09:30;;;;;;;23.00;15.30;;;10.00;99.90;;;;;;5040783;28;20048;-88
2022/04/14 02:11:56;;;;;;;23.00;15.50;;;10.10;99.90;;;;;;5057508;28;20056;-87
2022/04/14 02:14:22;;;;;;;20.88;14.77;;;10.10;99.90;;;;;;5061202;28;20070;-87
2022/04/14 02:16:47;;;;;;;21.92;15.38;;;10.10;99.90;;;;;;5059370;28;20219;-87
2022/04/14 02:19:16;;;;;;;23.73;16.08;;;10.00;99.90;;;;;;5040606;28;20043;-87
2022/04/14 02:21:41;;;;;;;23.70;16.40;;;10.10;99.90;;;;;;5058795;28;20072;-87
2022/04/14 02:24:07;;;;;;;25.05;15.57;;;10.00;99.90;;;;;;5042252;28;20133;-87
2022/04/14 02:26:33;;;;;;;23.25;16.23;;;10.00;99.90;;;;;;5061513;28;20131;-86
2022/04/14 02:28:58;;;;;;;27.67;17.00;;;10.00;99.90;;;;;;5043023;28;20055;-87
2022/04/14 02:31:24;;;;;;;24.60;17.00;;;10.00;99.90;;;;;;5043084;28;20050;-86
2022/04/14 02:33:50;;;;;;;25.45;17.90;;;9.90;99.90;;;;;;5040950;28;20071;-86
2022/04/14 02:36:16;;;;;;;25.73;16.48;;;9.90;99.90;;;;;;5042373;28;20048;-87
2022/04/14 02:38:43;;;;;;;26.70;16.38;;;9.90;99.90;;;;;;5041689;28;20036;-87
2022/04/14 02:41:09;;;;;;;25.55;16.35;;;9.80;99.90;;;;;;5040568;28;20197;-87
2022/04/14 02:43:37;;;;;;;29.95;17.60;;;9.90;99.90;;;;;;5038527;28;20212;-87
2022/04/14 02:46:04;;;;;;;25.63;16.52;;;9.90;1.00;;;;;;5041226;28;20063;-87
2022/04/14 02:48:31;;;;;;;24.90;17.67;;;9.90;99.90;;;;;;5041977;28;20051;-86
2022/04/14 02:51:00;;;;;;;25.83;18.92;;;9.90;1.00;;;;;;5042228;28;20421;-86
2022/04/14 02:53:26;;;;;;;26.15;18.17;;;9.80;1.00;;;;;;5043440;28;20119;-87
2022/04/14 02:55:52;;;;;;;26.17;18.48;;;9.80;99.90;;;;;;5041138;28;20345;-87
2022/04/14 02:58:19;;;;;;;28.77;18.45;;;9.70;99.90;;;;;;5044193;28;20048;-88
2022/04/14 03:00:44;;;;;;;26.13;19.40;;;9.70;1.00;;;;;;5041048;28;20044;-87
2022/04/14 03:03:10;;;;;;;28.95;20.08;;;9.70;1.00;;;;;;5041961;28;20753;-86
2022/04/14 03:05:36;;;;;;;27.45;19.48;;;9.70;1.00;;;;;;5040049;28;20581;-86
2022/04/14 03:08:01;;;;;;;34.15;21.20;;;9.60;1.00;;;;;;5035132;28;20115;-86
2022/04/14 03:10:27;;;;;;;35.80;21.25;;;9.60;1.00;;;;;;5041202;28;20090;-86
2022/04/14 03:12:53;;;;;;;30.30;20.30;;;9.60;1.00;;;;;;5059687;28;20362;-87
2022/04/14 03:15:19;;;;;;;28.55;20.70;;;9.60;1.00;;;;;;5039995;28;20132;-87
2022/04/14 03:17:45;;;;;;;32.10;23.02;;;9.50;1.00;;;;;;5041976;28;20067;-87
2022/04/14 03:20:12;;;;;;;32.00;21.77;;;9.50;99.90;;;;;;5038238;28;20036;-87
2022/04/14 03:22:37;;;;;;;32.90;22.63;;;9.50;21.40;;;;;;5058299;28;20635;-86
2022/04/14 03:25:05;;;;;;;32.22;21.35;;;9.50;99.90;;;;;;5041463;28;20029;-86
2022/04/14 03:27:31;;;;;;;33.33;23.50;;;9.40;1.00;;;;;;5041155;28;20039;-87
2022/04/14 03:29:57;;;;;;;35.67;23.85;;;9.50;99.90;;;;;;5039522;28;20028;-86
2022/04/14 03:32:24;;;;;;;32.45;22.23;;;9.40;43.60;;;;;;5040804;28;20111;-86
2022/04/14 03:34:51;;;;;;;35.28;23.65;;;9.40;99.90;;;;;;5038654;28;20044;-87
2022/04/14 03:37:16;;;;;;;33.70;23.73;;;9.40;99.90;;;;;;5041571;28;20064;-87
2022/04/14 03:39:42;;;;;;;36.22;24.48;;;9.30;99.90;;;;;;5040424;28;20072;-86
2022/04/14 03:42:08;;;;;;;38.92;25.33;;;9.30;93.40;;;;;;5041399;28;20066;-86
2022/04/14 03:44:33;;;;;;;33.65;24.48;;;9.30;99.90;;;;;;5042255;28;20066;-84
2022/04/14 03:46:59;;;;;;;36.00;25.73;;;9.20;99.90;;;;;;5040695;28;20029;-87
2022/04/14 03:49:25;;;;;;;40.53;25.10;;;9.20;99.90;;;;;;5038725;28;20558;-86
2022/04/14 03:51:54;;;;;;;40.67;26.17;;;9.20;99.90;;;;;;5057624;28;20036;-86
2022/04/14 03:54:20;;;;;;;42.35;26.10;;;9.20;99.90;;;;;;5039767;28;20037;-85
2022/04/14 03:56:47;;;;;;;38.97;27.17;;;9.20;99.90;;;;;;5029588;28;20025;-86
2022/04/14 03:59:14;;;;;;;39.30;27.30;;;9.10;99.90;;;;;;5056983;28;20051;-86
2022/04/14 04:01:40;;;;;;;42.17;28.17;;;9.10;99.90;;;;;;5038827;28;20033;-86
2022/04/14 04:04:06;;;;;;;44.78;27.42;;;9.10;99.90;;;;;;5055251;28;20040;-86
2022/04/14 04:06:35;;;;;;;47.45;28.65;;;9.00;99.90;;;;;;5055773;28;20039;-85
2022/04/14 04:09:01;;;;;;;44.45;29.23;;;9.00;99.90;;;;;;5040306;28;20058;-86
2022/04/14 04:11:26;;;;;;;47.30;29.52;;;8.90;99.90;;;;;;5040860;28;20049;-86
2022/04/14 04:13:52;;;;;;;49.67;30.30;;;8.90;99.90;;;;;;5038027;28;20105;-86
2022/04/14 04:16:18;;;;;;;49.33;31.27;;;8.80;99.90;;;;;;5042522;28;20037;-86
2022/04/14 04:18:44;;;;;;;47.50;29.70;;;8.80;99.90;;;;;;5030462;28;20044;-86
2022/04/14 04:21:09;;;;;;;49.78;30.77;;;8.90;99.90;;;;;;5038558;28;20036;-85
2022/04/14 04:23:35;;;;;;;48.55;31.90;;;8.80;99.90;;;;;;5058328;28;20380;-86
2022/04/14 04:26:01;;;;;;;45.42;30.70;;;8.80;99.90;;;;;;5040581;28;20170;-85
2022/04/14 04:28:30;;;;;;;47.78;31.30;;;8.70;99.90;;;;;;5038152;28;20130;-85
2022/04/14 04:30:56;;;;;;;56.10;32.42;;;8.80;99.90;;;;;;5041445;28;20048;-86
2022/04/14 04:33:22;;;;;;;50.45;32.15;;;8.70;99.90;;;;;;5056967;28;20116;-86
2022/04/14 04:35:50;;;;;;;53.33;32.80;;;8.70;99.90;;;;;;5036771;28;20571;-86
2022/04/14 04:38:15;;;;;;;52.33;32.22;;;8.70;99.90;;;;;;5039638;28;20324;-86
2022/04/14 04:40:41;;;;;;;52.15;32.63;;;8.60;99.90;;;;;;5040390;28;20387;-86
2022/04/14 04:43:08;;;;;;;51.97;33.63;;;8.60;99.90;;;;;;5040138;28;20029;-86
2022/04/14 04:45:35;;;;;;;55.17;35.58;;;8.60;99.90;;;;;;5035595;28;20036;-85
2022/04/14 04:48:04;;;;;;;54.58;33.28;;;8.50;99.90;;;;;;5039004;28;20078;-85
2022/04/14 04:50:31;;;;;;;55.03;33.85;;;8.50;99.90;;;;;;5037790;28;20048;-85
2022/04/14 04:52:56;;;;;;;59.05;34.50;;;8.50;99.90;;;;;;5037614;28;20101;-85
2022/04/14 04:55:22;;;;;;;54.38;34.53;;;8.40;99.90;;;;;;5040452;28;20029;-86
2022/04/14 04:57:48;;;;;;;54.53;34.88;;;8.40;99.90;;;;;;5041187;28;20147;-86
2022/04/14 05:00:14;;;;;;;59.88;37.63;;;8.40;99.90;;;;;;5040662;28;20135;-85
2022/04/14 05:02:40;;;;;;;60.55;35.63;;;8.40;99.90;;;;;;5046102;28;20471;-86
2022/04/14 05:05:08;;;;;;;64.25;38.80;;;8.40;99.90;;;;;;5037246;28;20036;-85
2022/04/14 05:07:34;;;;;;;63.20;37.42;;;8.40;99.90;;;;;;5038058;28;20132;-85
2022/04/14 05:10:00;;;;;;;66.55;38.25;;;8.50;99.90;;;;;;5037393;28;20044;-86
2022/04/14 05:12:25;;;;;;;60.42;36.70;;;8.50;99.90;;;;;;5038965;28;20053;-85
2022/04/14 05:14:51;;;;;;;63.33;37.30;;;8.50;99.90;;;;;;5038937;28;20045;-85
2022/04/14 05:17:18;;;;;;;67.55;39.00;;;8.40;99.90;;;;;;5055683;28;20522;-85
2022/04/14 05:19:44;;;;;;;64.65;38.95;;;8.50;99.90;;;;;;5055520;28;20123;-85
2022/04/14 05:22:10;;;;;;;69.13;39.75;;;8.50;99.90;;;;;;5037072;28;20033;-85
2022/04/14 05:24:36;;;;;;;68.68;38.90;;;8.60;99.90;;;;;;5056028;28;20029;-86
2022/04/14 05:27:02;;;;;;;65.15;38.03;;;8.60;99.90;;;;;;5040731;28;20182;-85
2022/04/14 05:29:28;;;;;;;64.97;38.15;;;8.60;99.90;;;;;;5039901;28;20086;-85
2022/04/14 05:31:53;;;;;;;53.95;34.75;;;8.60;99.90;;;;;;5057454;28;20041;-86
2022/04/14 05:34:19;;;;;;;62.10;38.13;;;8.70;99.90;;;;;;5055642;28;20121;-86
2022/04/14 05:36:45;;;;;;;66.22;38.25;;;8.70;99.90;;;;;;5035552;28;20040;-86
2022/04/14 05:39:11;;;;;;;56.22;35.03;;;8.80;99.90;;;;;;5033810;28;20048;-86
2022/04/14 05:41:36;;;;;;;57.78;36.40;;;8.80;99.90;;;;;;5057309;28;20127;-86
2022/04/14 05:44:02;;;;;;;57.58;36.63;;;8.90;99.90;;;;;;5032982;28;20144;-86
2022/04/14 05:46:28;;;;;;;52.75;36.25;;;8.90;99.90;;;;;;5041444;28;20238;-86
2022/04/14 05:48:54;;;;;;;58.10;37.53;;;9.00;99.90;;;;;;5042546;28;20037;-85
2022/04/14 05:51:21;;;;;;;61.08;37.13;;;9.10;99.90;;;;;;5044667;28;20070;-85
2022/04/14 05:53:53;;;;;;;59.53;38.20;;;9.20;99.90;;;;;;5043868;28;20161;-85
2022/04/14 05:56:20;;;;;;;61.20;37.65;;;9.30;99.90;;;;;;5057321;28;20411;-86
2022/04/14 05:58:46;;;;;;;67.43;40.10;;;9.50;99.90;;;;;;5034967;28;20513;-86
2022/04/14 06:01:12;;;;;;;60.63;38.25;;;9.50;99.90;;;;;;5042840;28;20556;-86
2022/04/14 06:03:40;;;;;;;59.60;38.55;;;9.60;99.90;;;;;;5043545;28;20507;-86
2022/04/14 06:06:05;;;;;;;57.33;38.88;;;9.60;99.90;;;;;;5074469;28;20393;-86
2022/04/14 06:08:31;;;;;;;60.42;38.28;;;9.80;99.90;;;;;;5042235;28;20068;-86
2022/04/14 06:11:00;;;;;;;61.17;38.05;;;9.90;99.90;;;;;;5042359;28;20056;-85
2022/04/14 06:13:25;;;;;;;58.03;38.78;;;10.00;99.90;;;;;;5036785;28;20048;-84
2022/04/14 06:15:51;;;;;;;59.67;36.35;;;10.10;99.90;;;;;;5042919;28;20375;-87
2022/04/14 06:18:18;;;;;;;57.45;37.85;;;10.20;99.90;;;;;;5041735;28;20211;-85
2022/04/14 06:20:47;;;;;;;57.42;37.63;;;10.30;99.90;;;;;;5059716;28;20048;-86
2022/04/14 06:23:16;;;;;;;56.58;36.10;;;10.40;99.90;;;;;;5043523;28;20036;-86
2022/04/14 06:25:49;;;;;;;57.63;35.83;;;10.50;99.90;;;;;;5059613;28;20531;-86
2022/04/14 06:28:22;;;;;;;49.70;34.88;;;10.60;99.90;;;;;;5042364;28;20162;-85
2022/04/14 06:30:49;;;;;;;50.28;34.33;;;10.70;98.30;;;;;;5043023;28;20352;-86
2022/04/14 06:33:16;;;;;;;51.42;33.85;;;10.80;99.90;;;;;;5041443;28;20402;-86
2022/04/14 06:35:42;;;;;;;53.35;34.38;;;10.90;70.50;;;;;;5058476;28;20036;-85
2022/04/14 06:38:08;;;;;;;47.20;33.60;;;11.00;51.00;;;;;;5042494;28;20044;-86
2022/04/14 06:40:35;;;;;;;52.50;32.70;;;11.10;1.00;;;;;;5044038;28;20039;-85
2022/04/14 06:43:01;;;;;;;51.05;32.53;;;11.20;1.00;;;;;;5043853;28;20044;-85
2022/04/14 06:45:27;;;;;;;47.58;32.03;;;11.30;1.00;;;;;;5041274;28;20040;-86
2022/04/14 06:47:53;;;;;;;49.75;33.65;;;11.40;1.00;;;;;;5042593;28;20063;-86
2022/04/14 06:50:19;;;;;;;45.38;30.73;;;11.60;1.00;;;;;;5040684;28;20487;-86
2022/04/14 06:52:45;;;;;;;44.30;30.42;;;11.70;99.90;;;;;;5042427;28;20123;-86
2022/04/14 06:55:11;;;;;;;46.88;31.75;;;11.80;99.90;;;;;;5049243;28;20635;-86
2022/04/14 06:57:37;;;;;;;41.65;29.80;;;11.90;99.90;;;;;;5056132;28;20515;-86
2022/04/14 07:00:04;;;;;;;42.33;28.70;;;11.80;99.90;;;;;;5034214;28;20032;-85
2022/04/14 07:02:31;;;;;;;46.75;28.83;;;12.00;99.90;;;;;;5057492;28;20283;-86
2022/04/14 07:04:59;;;;;;;41.80;27.90;;;11.90;99.90;;;;;;5056623;28;20040;-85
2022/04/14 07:07:24;;;;;;;39.30;25.90;;;11.80;99.90;;;;;;5039668;28;20107;-86
2022/04/14 07:09:50;;;;;;;35.30;25.90;;;11.70;99.90;;;;;;5059270;28;20127;-85
2022/04/14 07:12:16;;;;;;;37.97;24.95;;;11.80;99.90;;;;;;5033818;28;20277;-86
2022/04/14 07:14:42;;;;;;;40.53;26.98;;;12.00;99.90;;;;;;5034620;28;20041;-87
2022/04/14 07:17:10;;;;;;;40.30;26.80;;;12.20;99.90;;;;;;5055036;28;20056;-85
2022/04/14 07:19:35;;;;;;;33.22;22.50;;;12.30;99.90;;;;;;5039950;28;20119;-87
2022/04/14 07:22:02;;;;;;;34.28;24.80;;;12.20;99.90;;;;;;5033180;28;20132;-88
2022/04/14 07:24:28;;;;;;;32.38;23.85;;;12.30;1.00;;;;;;5055123;28;20104;-86
2022/04/14 07:26:53;;;;;;;33.90;23.05;;;12.40;88.40;;;;;;5033786;28;21773;-86
2022/04/14 07:29:19;;;;;;;31.98;22.23;;;12.50;1.00;;;;;;5040698;28;20093;-87
2022/04/14 07:31:49;;;;;;;30.20;19.38;;;12.50;1.00;;;;;;5040372;28;20032;-87
2022/04/14 07:34:18;;;;;;;23.83;18.70;;;12.60;99.90;;;;;;5041547;28;20074;-86
2022/04/14 07:36:45;;;;;;;23.38;17.65;;;12.80;1.00;;;;;;5039442;28;20279;-87
2022/04/14 07:39:11;;;;;;;25.35;17.40;;;12.80;90.20;;;;;;5051057;28;20076;-86
2022/04/14 07:41:36;;;;;;;26.33;17.92;;;12.80;86.50;;;;;;5058158;28;20441;-85
2022/04/14 07:44:04;;;;;;;26.08;18.10;;;12.90;25.70;;;;;;5040409;28;20123;-87
2022/04/14 07:46:30;;;;;;;24.70;17.70;;;13.00;99.90;;;;;;5057655;28;20567;-87
2022/04/14 07:48:55;;;;;;;24.88;18.80;;;13.10;1.00;;;;;;5041661;28;20115;-87
2022/04/14 07:51:21;;;;;;;28.70;19.77;;;13.10;99.90;;;;;;5037789;28;20036;-86
2022/04/14 07:53:47;;;;;;;29.85;21.27;;;13.30;99.90;;;;;;5040914;28;20037;-87
2022/04/14 07:56:18;;;;;;;28.38;20.73;;;13.30;57.60;;;;;;5052656;28;20194;-88
2022/04/14 07:58:45;;;;;;;27.35;20.88;;;13.50;99.90;;;;;;5055986;28;20136;-86
2022/04/14 08:01:11;;;;;;;28.60;21.33;;;13.40;99.90;;;;;;5039703;28;20185;-86
2022/04/14 08:03:39;;;;;;;30.02;21.33;;;13.60;1.00;;;;;;5040809;28;20044;-86
2022/04/14 08:06:05;;;;;;;25.80;20.15;;;13.70;1.00;;;;;;5034936;28;20547;-87
2022/04/14 08:08:31;;;;;;;29.95;21.67;;;13.60;99.90;;;;;;5056445;28;20071;-88
2022/04/14 08:11:03;;;;;;;29.15;21.52;;;13.50;99.90;;;;;;5039063;28;20084;-87
2022/04/14 08:13:30;;;;;;;29.52;20.25;;;13.70;99.90;;;;;;5060068;28;20051;-87
2022/04/14 08:16:01;;;;;;;32.75;22.00;;;13.50;99.90;;;;;;5044061;28;20075;-87
2022/04/14 08:18:29;;;;;;;28.35;21.23;;;13.70;1.00;;;;;;5039610;28;20115;-87
2022/04/14 08:20:58;;;;;;;30.90;22.00;;;13.70;99.90;;;;;;5040151;28;20128;-87
2022/04/14 08:23:24;;;;;;;30.25;22.10;;;14.00;1.00;;;;;;5038240;28;20534;-87
2022/04/14 08:25:49;;;;;;;27.77;20.77;;;14.00;1.00;;;;;;5043315;28;20036;-87
2022/04/14 08:28:15;;;;;;;30.33;22.13;;;14.10;99.90;;;;;;5040862;28;20048;-88
2022/04/14 08:30:49;;;;;;;31.40;22.33;;;14.10;99.90;;;;;;5031860;28;20098;-89
2022/04/14 08:33:18;;;;;;;33.15;24.52;;;14.20;99.90;;;;;;5058626;28;20551;-87
2022/04/14 08:35:45;;;;;;;30.63;21.63;;;14.50;1.00;;;;;;5039713;28;20468;-87
2022/04/14 08:38:13;;;;;;;29.85;22.83;;;14.50;99.90;;;;;;5038553;28;20033;-88
2022/04/14 08:40:44;;;;;;;29.73;21.52;;;14.40;99.90;;;;;;5039948;28;20051;-87
2022/04/14 08:43:10;;;;;;;28.52;21.88;;;14.50;99.90;;;;;;5057198;28;20127;-87
2022/04/14 08:45:43;;;;;;;26.70;20.98;;;14.70;99.90;;;;;;5038723;28;20148;-87
2022/04/14 08:48:13;;;;;;;25.98;21.30;;;14.60;99.90;;;;;;5042247;28;20056;-86
2022/04/14 08:50:44;;;;;;;27.85;20.73;;;14.70;99.90;;;;;;5038305;28;20045;-87
2022/04/14 08:53:10;;;;;;;26.25;21.45;;;14.80;99.90;;;;;;5040184;28;20402;-87
2022/04/14 08:55:42;;;;;;;26.67;20.30;;;15.00;99.90;;;;;;5040602;28;20037;-87
2022/04/14 08:58:16;;;;;;;25.00;19.15;;;15.10;99.90;;;;;;5039804;28;20064;-87
2022/04/14 09:00:43;;;;;;;22.70;18.67;;;15.30;99.90;;;;;;5041194;28;20052;-87
2022/04/14 09:03:15;;;;;;;25.08;19.23;;;15.30;99.90;;;;;;5040427;28;20487;-87
2022/04/14 09:05:42;;;;;;;23.95;19.58;;;15.30;99.90;;;;;;5038168;28;20044;-88
2022/04/14 09:08:08;;;;;;;24.25;18.63;;;15.30;99.90;;;;;;5040026;28;20480;-89
2022/04/14 09:10:36;;;;;;;23.17;17.65;;;15.50;66.00;;;;;;5040066;28;20228;-87
2022/04/14 09:13:14;;;;;;;21.17;16.50;;;15.60;94.00;;;;;;5057848;28;20056;-87
2022/04/14 09:15:42;;;;;;;18.38;15.68;;;15.80;4.80;;;;;;5037404;28;20032;-88
2022/04/14 09:18:12;;;;;;;21.83;16.48;;;15.40;1.00;;;;;;5034756;28;20102;-87
2022/04/14 09:20:42;;;;;;;15.75;12.63;;;15.60;47.40;;;;;;5054037;28;20119;-88
2022/04/14 09:23:12;;;;;;;19.95;14.30;;;15.50;70.00;;;;;;5043315;28;20135;-86
2022/04/14 09:25:42;;;;;;;16.45;12.63;;;15.20;41.10;;;;;;5062934;28;20144;-88
2022/04/14 09:28:13;;;;;;;15.40;12.32;;;15.60;99.90;;;;;;5045962;28;20052;-86
2022/04/14 09:31:01;;;;;;;12.90;9.77;;;15.90;85.70;;;;;;5059971;28;20036;-87
2022/04/14 09:33:27;;;;;;;14.93;12.05;;;15.70;1.00;;;;;;5037947;28;20041;-88
2022/04/14 09:36:30;;;;;;;15.32;10.98;;;15.80;1.00;;;;;;5042117;28;20067;-89
2022/04/14 09:39:00;;;;;;;14.10;10.80;;;16.00;1.00;;;;;;5005783;28;20044;-87
2022/04/14 09:41:42;;;;;;;16.35;12.10;;;16.30;1.00;;;;;;5032462;28;20448;-88
2022/04/14 09:44:14;;;;;;;16.40;11.60;;;16.70;1.00;;;;;;5045061;28;20033;-87
2022/04/14 09:46:50;;;;;;;16.00;11.45;;;16.50;1.00;;;;;;5058306;28;20064;-87
2022/04/14 09:49:26;;;;;;;12.98;10.52;;;16.90;1.00;;;;;;5040686;28;20059;-87
2022/04/14 09:51:51;;;;;;;14.43;11.35;;;17.20;1.00;;;;;;5034957;28;20436;-87
2022/04/14 09:54:28;;;;;;;15.07;11.75;;;16.50;1.00;;;;;;5042928;28;20119;-86
2022/04/14 09:56:56;;;;;;;14.77;11.75;;;16.80;1.00;;;;;;5041822;28;20035;-88
2022/04/14 09:59:24;;;;;;;13.32;8.90;;;16.80;3.20;;;;;;5040593;28;20079;-88
2022/04/14 10:02:09;;;;;;;13.82;8.82;;;16.30;1.00;;;;;;5043495;28;20067;-88
2022/04/14 10:04:46;;;;;;;11.70;8.48;;;16.50;1.00;;;;;;5042014;28;20106;-89
2022/04/14 10:07:20;;;;;;;9.38;7.43;;;16.90;1.00;;;;;;5071183;28;20127;-87
2022/04/14 10:09:56;;;;;;;10.45;8.40;;;17.30;1.50;;;;;;5060899;28;20052;-87
2022/04/14 10:12:31;;;;;;;12.05;9.15;;;17.20;1.00;;;;;;5043775;28;20194;-88
2022/04/14 10:15:17;;;;;;;11.85;8.90;;;17.10;1.00;;;;;;5036995;28;20534;-87
2022/04/14 10:17:46;;;;;;;11.15;9.05;;;17.40;1.00;;;;;;5052275;28;20544;-88
2022/04/14 10:20:17;;;;;;;13.02;9.82;;;17.40;1.00;;;;;;5052584;28;20040;-88
2022/04/14 10:22:47;;;;;;;11.50;7.97;;;16.80;1.00;;;;;;5033615;28;20048;-87
2022/04/14 10:25:13;;;;;;;8.13;5.30;;;16.30;1.00;;;;;;5038923;28;20383;-89
2022/04/14 10:27:45;;;;;;;10.10;5.90;;;16.40;1.00;;;;;;5043990;28;20059;-87
2022/04/14 10:30:19;;;;;;;9.93;6.40;;;16.40;1.00;;;;;;5040515;28;20048;-88
2022/04/14 10:32:46;;;;;;;8.88;6.43;;;16.70;1.00;;;;;;5059616;28;20067;-89
2022/04/14 10:35:26;;;;;;;9.18;6.03;;;16.90;1.00;;;;;;5042849;28;20036;-88
2022/04/14 10:38:11;;;;;;;8.80;6.40;;;17.10;1.00;;;;;;5035790;28;20037;-86
2022/04/14 10:40:42;;;;;;;;;;;17.20;1.00;;;;;;5043852;28;20127;-87
2022/04/14 10:43:09;;;;;;;7.25;5.57;;;17.40;99.90;;;;;;5055122;28;20587;-88
2022/04/14 10:45:50;;;;;;;8.40;5.80;;;17.10;99.90;;;;;;5039281;28;20555;-88
2022/04/14 10:48:36;;;;;;;8.85;5.63;;;17.40;1.00;;;;;;5050717;28;20372;-87
2022/04/14 10:51:43;;;;;;;8.27;5.30;;;17.40;99.90;;;;;;5055649;28;20049;-87
2022/04/14 10:54:34;;;;;;;6.22;5.00;;;17.20;99.90;;;;;;5055580;28;20075;-87
2022/04/14 10:57:01;;;;;;;7.53;5.65;;;17.60;99.90;;;;;;5054490;28;20040;-87
2022/04/14 10:59:32;;;;;;;6.85;5.38;;;17.80;1.00;;;;;;5039877;28;20374;-87
2022/04/14 11:02:04;;;;;;;9.10;5.50;;;17.80;99.90;;;;;;5059395;28;20040;-87
2022/04/14 11:04:42;;;;;;;7.32;4.97;;;18.20;99.90;;;;;;5038318;28;20044;-87
2022/04/14 11:07:26;;;;;;;;;;;17.90;99.90;;;;;;5035972;28;20045;-87
2022/04/14 11:10:03;;;;;;;4.95;3.40;;;17.80;99.90;;;;;;5036344;28;19954;-88
2022/04/14 11:12:47;;;;;;;5.50;3.67;;;17.80;99.90;;;;;;5036690;28;20140;-88
2022/04/14 11:15:39;;;;;;;7.72;3.75;;;18.10;99.90;;;;;;5037068;28;20481;-88
2022/04/14 11:18:18;;;;;;;6.32;4.15;;;18.50;99.90;;;;;;5050870;28;20421;-89
2022/04/14 11:21:01;;;;;;;6.05;3.55;;;18.00;99.90;;;;;;5042011;28;20412;-87
2022/04/14 11:23:39;;;;;;;5.72;3.40;;;18.00;1.00;;;;;;5040976;28;20044;-88
2022/04/14 11:26:16;;;;;;;6.50;4.20;;;17.70;99.90;;;;;;5039383;28;20523;-87
2022/04/14 11:28:59;;;;;;;7.60;4.03;;;17.40;99.90;;;;;;5042126;28;20123;-89
2022/04/14 11:31:31;;;;;;;8.10;3.30;;;17.10;1.00;;;;;;5058420;28;20032;-88
2022/04/14 11:34:09;;;;;;;5.25;3.00;;;16.90;99.90;;;;;;5059901;28;20040;-89
2022/04/14 11:36:45;;;;;;;5.75;2.88;;;17.20;99.90;;;;;;5040602;28;20056;-87
2022/04/14 11:39:26;;;;;;;7.75;3.00;;;17.00;99.90;;;;;;5042668;28;20037;-88
2022/04/14 11:42:03;;;;;;;5.68;2.53;;;17.30;99.90;;;;;;5044343;28;20043;-87
2022/04/14 11:44:53;;;;;;;5.03;2.05;;;17.30;99.90;;;;;;5046348;28;20048;-89
2022/04/14 11:47:20;;;;;;;3.92;2.28;;;17.10;99.90;;;;;;5037271;28;20044;-87
2022/04/14 11:49:50;;;;;;;4.28;2.13;;;17.30;99.90;;;;;;5042615;28;20037;-88
2022/04/14 11:52:25;;;;;;;4.47;2.40;;;17.70;99.90;;;;;;5038852;28;20037;-87
2022/04/14 11:55:01;;;;;;;3.28;1.95;;;18.00;99.90;;;;;;5047721;28;20028;-87
2022/04/14 11:57:48;;;;;;;4.85;3.15;;;18.30;99.90;;;;;;5036550;28;20890;-86
2022/04/14 12:00:28;;;;;;;3.92;2.70;;;17.70;99.90;;;;;;5049678;28;20048;-89
2022/04/14 12:03:11;;;;;;;4.65;2.65;;;17.60;99.90;;;;;;5025733;28;20055;-89
2022/04/14 12:06:16;;;;;;;3.92;2.08;;;17.70;99.90;;;;;;5054960;28;20033;-88
2022/04/14 12:08:53;;;;;;;4.00;2.23;;;18.30;99.90;;;;;;5033292;28;20098;-89
2022/04/14 12:11:33;;;;;;;4.53;2.70;;;18.20;99.90;;;;;;5039694;28;20442;-88
2022/04/14 12:17:48;;;;;;;5.93;2.90;;;17.60;99.90;;;;;;5051539;28;20079;-92
2022/04/14 12:20:58;;;;;;;;;;;;;;;;;;;;;
2022/04/14 12:23:56;;;;;;;7.22;4.68;;;17.50;99.90;;;;;;5052143;28;20101;-93
2022/04/14 12:26:51;;;;;;;8.10;4.85;;;17.50;99.90;;;;;;5038036;28;20166;-91
2022/04/14 12:29:42;;;;;;;6.28;4.72;;;17.30;99.90;;;;;;5013024;28;20059;-87
2022/04/14 12:32:35;;;;;;;5.65;4.20;;;17.60;99.90;;;;;;5023971;28;20550;-89
2022/04/14 12:35:11;;;;;;;9.38;5.50;;;17.70;99.90;;;;;;5036028;28;20131;-89
2022/04/14 12:38:29;;;;;;;6.07;4.30;;;17.60;99.90;;;;;;5026251;28;20435;-88
2022/04/14 12:41:14;;;;;;;5.25;3.78;;;17.90;99.90;;;;;;5048545;28;20064;-89
2022/04/14 12:43:48;;;;;;;6.55;3.30;;;18.00;99.90;;;;;;5043180;28;20635;-89
2022/04/14 12:46:25;;;;;;;6.60;3.65;;;17.70;99.90;;;;;;5022978;28;20471;-89
2022/04/14 12:49:09;;;;;;;5.60;3.83;;;17.30;99.90;;;;;;5043907;28;20048;-87
2022/04/14 12:51:37;;;;;;;6.72;3.47;;;17.50;99.90;;;;;;5055299;28;20418;-89
2022/04/14 12:54:03;;;;;;;4.72;2.60;;;18.00;99.90;;;;;;5030285;28;20036;-88
2022/04/14 12:56:32;;;;;;;4.22;2.90;;;17.80;99.90;;;;;;5036751;28;20046;-88